Time;durP1;ratioP1;P1;durP2;ratioP2;P2;SDS_P1;SDS_P2;PMS_P1;PMS_P2;Temp;Humidity;BMP_temperature;BMP_pressure;BME280_temperature;BME280_humidity;BME280_pressure;Samples;Min_cycle;Max_cycle;Signal;HPM_P1;HPM_P2
2022/02/12 00:02:46;;;;;;;;;27.50;27.50;;;;;;;;2;261074153;261074153;-88
2022/02/12 00:11:46;;;;;;;;;23.50;19.50;;;;;;;;2;261078435;261078435;-89
2022/02/12 00:20:03;;;;;;;;;32.50;29.00;;;;;;;;2;261076696;261076696;-89
2022/02/12 00:29:04;;;;;;;;;27.00;24.00;;;;;;;;2;261079276;261079276;-89
2022/02/12 00:37:19;;;;;;;;;40.50;17.00;;;;;;;;2;261079315;261079315;-88
2022/02/12 00:46:19;;;;;;;;;35.00;27.00;;;;;;;;2;261075395;261075395;-87
2022/02/12 00:54:37;;;;;;;;;29.50;17.50;;;;;;;;2;261079102;261079102;-87
2022/02/12 01:03:37;;;;;;;;;23.50;23.50;;;;;;;;2;261076433;261076433;-87
2022/02/12 01:11:52;;;;;;;;;41.00;25.00;;;;;;;;2;261078878;261078878;-87
2022/02/12 01:20:53;;;;;;;;;28.00;27.50;;;;;;;;2;261079418;261079418;-87
2022/02/12 01:29:08;;;;;;;;;22.00;18.00;;;;;;;;2;261074250;261074250;-87
2022/02/12 01:38:09;;;;;;;;;17.50;17.50;;;;;;;;2;261077748;261077748;-87
2022/02/12 01:46:24;;;;;;;;;17.50;17.50;;;;;;;;2;261076647;261076647;-87
2022/02/12 01:55:24;;;;;;;;;11.00;11.00;;;;;;;;2;261077817;261077817;-87
2022/02/12 02:03:40;;;;;;;;;13.00;10.00;;;;;;;;2;261075430;261075430;-87
2022/02/12 02:12:41;;;;;;;;;19.50;19.50;;;;;;;;2;261078565;261078565;-86
2022/02/12 02:20:56;;;;;;;;;17.50;17.50;;;;;;;;2;261076184;261076184;-86
2022/02/12 02:29:56;;;;;;;;;13.50;13.50;;;;;;;;2;261075397;261075397;-86
2022/02/12 02:38:16;;;;;;;;;13.50;13.50;;;;;;;;2;261075861;261075861;-86
2022/02/12 02:47:40;;;;;;;;;15.50;15.50;;;;;;;;2;261072877;261072877;-85
2022/02/12 02:56:08;;;;;;;;;17.00;17.00;;;;;;;;2;261068939;261068939;-86
2022/02/12 03:05:08;;;;;;;;;10.50;10.50;;;;;;;;2;261067110;261067110;-86
2022/02/12 03:13:24;;;;;;;;;31.50;17.50;;;;;;;;2;261078626;261078626;-88
2022/02/12 03:22:24;;;;;;;;;10.50;10.50;;;;;;;;2;261071333;261071333;-86
2022/02/12 03:30:42;;;;;;;;;29.50;17.50;;;;;;;;2;261075393;261075393;-86
2022/02/12 03:39:42;;;;;;;;;12.00;12.00;;;;;;;;2;261075444;261075444;-86
2022/02/12 03:47:58;;;;;;;;;19.50;15.50;;;;;;;;2;260943101;260943101;-86
2022/02/12 03:56:57;;;;;;;;;16.00;13.00;;;;;;;;2;261074969;261074969;-86
2022/02/12 04:05:14;;;;;;;;;14.50;14.50;;;;;;;;2;260988465;260988465;-86
2022/02/12 04:14:15;;;;;;;;;22.00;18.00;;;;;;;;2;261075417;261075417;-86
2022/02/12 04:22:31;;;;;;;;;16.50;12.50;;;;;;;;2;261077386;261077386;-86
2022/02/12 04:31:31;;;;;;;;;4.50;4.50;;;;;;;;2;261076064;261076064;-87
2022/02/12 04:39:47;;;;;;;;;6.00;6.00;;;;;;;;2;261076505;261076505;-87
2022/02/12 04:48:49;;;;;;;;;13.00;9.50;;;;;;;;2;261076845;261076845;-86
2022/02/12 04:57:04;;;;;;;;;6.00;6.00;;;;;;;;2;261076983;261076983;-87
2022/02/12 05:06:05;;;;;;;;;17.00;8.00;;;;;;;;2;261077433;261077433;-86
2022/02/12 05:14:20;;;;;;;;;24.00;8.00;;;;;;;;2;261078026;261078026;-86
2022/02/12 05:23:21;;;;;;;;;8.50;6.50;;;;;;;;2;261076365;261076365;-87
2022/02/12 05:31:36;;;;;;;;;7.50;3.50;;;;;;;;2;261075892;261075892;-86
2022/02/12 05:40:36;;;;;;;;;4.00;4.00;;;;;;;;2;261078184;261078184;-85
2022/02/12 05:48:52;;;;;;;;;3.00;3.00;;;;;;;;2;261075177;261075177;-86
2022/02/12 05:57:57;;;;;;;;;8.50;5.00;;;;;;;;2;261074710;261074710;-85
2022/02/12 06:06:14;;;;;;;;;14.00;5.50;;;;;;;;2;261075971;261075971;-86
2022/02/12 06:18:34;;;;;;;;;10.00;10.00;;;;;;;;2;261078502;261078502;-85
2022/02/12 06:26:56;;;;;;;;;4.00;4.00;;;;;;;;2;261078627;261078627;-88
2022/02/12 06:35:56;;;;;;;;;28.50;12.50;;;;;;;;2;261078585;261078585;-88
2022/02/12 06:44:12;;;;;;;;;6.00;6.00;;;;;;;;2;261078013;261078013;-88
2022/02/12 06:53:12;;;;;;;;;5.00;5.00;;;;;;;;2;261080706;261080706;-87
2022/02/12 07:01:28;;;;;;;;;6.00;6.00;;;;;;;;2;261079532;261079532;-87
2022/02/12 07:10:31;;;;;;;;;5.50;5.50;;;;;;;;2;261078306;261078306;-87
2022/02/12 07:18:47;;;;;;;;;20.50;7.50;;;;;;;;2;261075564;261075564;-87
2022/02/12 07:27:47;;;;;;;;;11.00;7.00;;;;;;;;2;261076776;261076776;-84
2022/02/12 07:36:04;;;;;;;;;8.00;8.00;;;;;;;;2;261077838;261077838;-84
2022/02/12 07:45:05;;;;;;;;;6.00;6.00;;;;;;;;2;261077961;261077961;-84
2022/02/12 07:53:21;;;;;;;;;15.00;9.50;;;;;;;;2;261081947;261081947;-84
2022/02/12 08:02:21;;;;;;;;;22.50;11.00;;;;;;;;2;261080036;261080036;-85
2022/02/12 08:19:57;;;;;;;;;10.50;9.00;;;;;;;;2;261079066;261079066;-86
2022/02/12 08:28:13;;;;;;;;;17.50;6.00;;;;;;;;2;261078513;261078513;-83
2022/02/12 08:37:13;;;;;;;;;9.00;5.00;;;;;;;;2;261077514;261077514;-90
2022/02/12 08:45:29;;;;;;;;;7.00;7.00;;;;;;;;2;261092724;261092724;-86
2022/02/12 08:54:29;;;;;;;;;12.00;10.00;;;;;;;;2;261078467;261078467;-84
2022/02/12 09:02:45;;;;;;;;;14.50;14.50;;;;;;;;2;261075413;261075413;-83
2022/02/12 09:11:45;;;;;;;;;13.00;13.00;;;;;;;;2;261076805;261076805;-83
2022/02/12 09:20:01;;;;;;;;;14.00;10.00;;;;;;;;2;261077604;261077604;-82
2022/02/12 09:29:02;;;;;;;;;21.50;10.00;;;;;;;;2;261073592;261073592;-81
2022/02/12 09:37:18;;;;;;;;;28.00;12.00;;;;;;;;2;261075272;261075272;-82
2022/02/12 09:46:31;;;;;;;;;23.00;5.50;;;;;;;;2;261071926;261071926;-83
2022/02/12 09:54:46;;;;;;;;;7.50;7.50;;;;;;;;2;261074650;261074650;-83
2022/02/12 10:03:49;;;;;;;;;33.50;10.00;;;;;;;;2;261077079;261077079;-83
2022/02/12 10:12:05;;;;;;;;;13.00;13.00;;;;;;;;2;261074401;261074401;-85
2022/02/12 10:21:06;;;;;;;;;12.50;12.50;;;;;;;;2;261075164;261075164;-85
2022/02/12 10:29:22;;;;;;;;;13.00;11.50;;;;;;;;2;261079409;261079409;-85
2022/02/12 10:38:24;;;;;;;;;14.50;6.50;;;;;;;;2;261077356;261077356;-84
2022/02/12 10:46:39;;;;;;;;;11.50;7.50;;;;;;;;2;261077096;261077096;-84
2022/02/12 10:55:39;;;;;;;;;9.50;9.50;;;;;;;;2;261076933;261076933;-85
2022/02/12 11:03:55;;;;;;;;;8.00;8.00;;;;;;;;2;261077727;261077727;-85
2022/02/12 11:12:57;;;;;;;;;14.00;5.00;;;;;;;;2;261077516;261077516;-86
2022/02/12 11:21:12;;;;;;;;;7.00;7.00;;;;;;;;2;261078140;261078140;-88
2022/02/12 11:30:13;;;;;;;;;6.00;6.00;;;;;;;;2;261079884;261079884;-87
2022/02/12 11:38:33;;;;;;;;;8.00;8.00;;;;;;;;2;261077044;261077044;-87
2022/02/12 11:47:36;;;;;;;;;8.50;8.50;;;;;;;;2;261076718;261076718;-86
2022/02/12 11:55:51;;;;;;;;;8.00;8.00;;;;;;;;2;261074655;261074655;-88
2022/02/12 12:05:10;;;;;;;;;5.00;5.00;;;;;;;;2;261075259;261075259;-86
2022/02/12 12:13:26;;;;;;;;;9.00;9.00;;;;;;;;2;261075206;261075206;-88
2022/02/12 12:22:29;;;;;;;;;8.50;8.50;;;;;;;;2;260930878;260930878;-87
2022/02/12 12:30:44;;;;;;;;;7.00;7.00;;;;;;;;2;261074595;261074595;-86
2022/02/12 12:39:45;;;;;;;;;10.00;10.00;;;;;;;;2;261074208;261074208;-87
2022/02/12 12:48:00;;;;;;;;;11.00;7.00;;;;;;;;2;261076528;261076528;-86
2022/02/12 12:57:01;;;;;;;;;9.50;9.50;;;;;;;;2;261077867;261077867;-86
2022/02/12 13:05:21;;;;;;;;;5.00;5.00;;;;;;;;2;261069762;261069762;-86
2022/02/12 13:14:21;;;;;;;;;2.50;2.50;;;;;;;;2;261049871;261049871;-88
2022/02/12 13:22:37;;;;;;;;;5.00;5.00;;;;;;;;2;261071157;261071157;-88
2022/02/12 13:31:37;;;;;;;;;6.50;5.00;;;;;;;;2;261069214;261069214;-88
2022/02/12 13:39:55;;;;;;;;;23.50;9.00;;;;;;;;2;261077519;261077519;-87
2022/02/12 13:48:55;;;;;;;;;9.00;9.00;;;;;;;;2;261075835;261075835;-88
2022/02/12 13:57:13;;;;;;;;;8.50;8.50;;;;;;;;2;261077719;261077719;-87
2022/02/12 14:06:14;;;;;;;;;24.50;4.50;;;;;;;;2;261073805;261073805;-87
2022/02/12 14:14:29;;;;;;;;;6.50;6.50;;;;;;;;2;261075407;261075407;-87
2022/02/12 14:23:30;;;;;;;;;4.00;4.00;;;;;;;;2;261074077;261074077;-88
2022/02/12 14:31:45;;;;;;;;;8.00;8.00;;;;;;;;2;261075678;261075678;-88
2022/02/12 14:40:46;;;;;;;;;9.50;9.50;;;;;;;;2;261076147;261076147;-87
2022/02/12 14:49:01;;;;;;;;;9.50;5.50;;;;;;;;2;261076449;261076449;-88
2022/02/12 14:58:02;;;;;;;;;10.00;10.00;;;;;;;;2;261075460;261075460;-88
2022/02/12 15:06:17;;;;;;;;;2.00;2.00;;;;;;;;2;261078708;261078708;-88
2022/02/12 15:15:18;;;;;;;;;9.00;5.00;;;;;;;;2;261078712;261078712;-88
2022/02/12 15:23:33;;;;;;;;;6.50;6.50;;;;;;;;2;261075735;261075735;-88
2022/02/12 15:32:34;;;;;;;;;19.00;7.00;;;;;;;;2;261076159;261076159;-88
2022/02/12 15:40:49;;;;;;;;;11.50;8.00;;;;;;;;2;261075301;261075301;-88
2022/02/12 15:49:50;;;;;;;;;11.50;10.00;;;;;;;;2;261077035;261077035;-88
2022/02/12 15:58:06;;;;;;;;;19.00;8.00;;;;;;;;2;261078460;261078460;-88
2022/02/12 16:07:07;;;;;;;;;15.00;12.00;;;;;;;;2;261075335;261075335;-88
2022/02/12 16:15:23;;;;;;;;;9.00;9.00;;;;;;;;2;261075712;261075712;-87
2022/02/12 16:24:24;;;;;;;;;9.50;9.50;;;;;;;;2;261074238;261074238;-87
2022/02/12 16:32:39;;;;;;;;;13.50;13.50;;;;;;;;2;261077483;261077483;-87
2022/02/12 16:41:39;;;;;;;;;8.00;8.00;;;;;;;;2;261074439;261074439;-87
2022/02/12 16:49:55;;;;;;;;;15.50;11.50;;;;;;;;2;261077166;261077166;-87
2022/02/12 16:58:55;;;;;;;;;13.00;13.00;;;;;;;;2;261076625;261076625;-87
2022/02/12 17:07:11;;;;;;;;;14.00;11.00;;;;;;;;2;261073951;261073951;-88
2022/02/12 17:16:11;;;;;;;;;29.00;17.50;;;;;;;;2;261076936;261076936;-87
2022/02/12 17:24:29;;;;;;;;;9.00;9.00;;;;;;;;2;261076483;261076483;-87
2022/02/12 17:33:29;;;;;;;;;11.00;11.00;;;;;;;;2;261074659;261074659;-87
2022/02/12 17:41:45;;;;;;;;;9.00;9.00;;;;;;;;2;261076477;261076477;-87
2022/02/12 17:50:49;;;;;;;;;14.50;11.50;;;;;;;;2;261078567;261078567;-87
2022/02/12 17:59:04;;;;;;;;;9.00;9.00;;;;;;;;2;261074885;261074885;-87
2022/02/12 18:08:05;;;;;;;;;13.00;13.00;;;;;;;;2;261075613;261075613;-87
2022/02/12 18:16:20;;;;;;;;;10.50;10.50;;;;;;;;2;261076263;261076263;-87
2022/02/12 18:25:21;;;;;;;;;18.50;17.00;;;;;;;;2;261076655;261076655;-87
2022/02/12 18:33:36;;;;;;;;;24.00;16.00;;;;;;;;2;261075479;261075479;-87
2022/02/12 18:42:37;;;;;;;;;19.00;19.00;;;;;;;;2;261077449;261077449;-87
2022/02/12 18:50:52;;;;;;;;;22.00;22.00;;;;;;;;2;261073231;261073231;-87
2022/02/12 18:59:52;;;;;;;;;27.50;21.00;;;;;;;;2;261076066;261076066;-87
2022/02/12 19:08:08;;;;;;;;;4.00;0.00;;;;;;;;2;261077857;261077857;-87
2022/02/12 19:17:09;;;;;;;;;21.00;21.00;;;;;;;;2;261082986;261082986;-86
2022/02/12 19:25:24;;;;;;;;;23.50;23.50;;;;;;;;2;261076338;261076338;-87
2022/02/12 19:34:25;;;;;;;;;24.50;24.50;;;;;;;;2;261079077;261079077;-87
2022/02/12 19:42:40;;;;;;;;;35.00;20.50;;;;;;;;2;261076994;261076994;-87
2022/02/12 19:51:41;;;;;;;;;24.00;24.00;;;;;;;;2;261074798;261074798;-87
2022/02/12 19:59:56;;;;;;;;;38.00;34.50;;;;;;;;2;261074879;261074879;-87
2022/02/12 20:08:57;;;;;;;;;21.50;21.50;;;;;;;;2;261075804;261075804;-87
2022/02/12 20:17:15;;;;;;;;;29.00;24.50;;;;;;;;2;261070686;261070686;-87
2022/02/12 20:26:16;;;;;;;;;22.00;22.00;;;;;;;;2;261069152;261069152;-87
2022/02/12 20:34:31;;;;;;;;;16.00;16.00;;;;;;;;2;261056982;261056982;-87
2022/02/12 20:43:32;;;;;;;;;19.00;19.00;;;;;;;;2;261074438;261074438;-87
2022/02/12 20:51:47;;;;;;;;;24.00;21.00;;;;;;;;2;261075233;261075233;-87
2022/02/12 21:00:48;;;;;;;;;15.50;15.50;;;;;;;;2;261076052;261076052;-87
2022/02/12 21:09:04;;;;;;;;;23.50;23.50;;;;;;;;2;261075603;261075603;-87
2022/02/12 21:18:05;;;;;;;;;14.50;14.50;;;;;;;;2;261075579;261075579;-87
2022/02/12 21:26:20;;;;;;;;;24.00;24.00;;;;;;;;2;261074186;261074186;-87
2022/02/12 21:35:20;;;;;;;;;21.00;21.00;;;;;;;;2;261075975;261075975;-87
2022/02/12 21:43:37;;;;;;;;;17.50;17.50;;;;;;;;2;261072016;261072016;-87
2022/02/12 21:52:37;;;;;;;;;44.00;22.50;;;;;;;;2;261075324;261075324;-87
2022/02/12 22:00:53;;;;;;;;;34.00;18.00;;;;;;;;2;261077986;261077986;-87
2022/02/12 22:09:53;;;;;;;;;16.00;16.00;;;;;;;;2;261075245;261075245;-87
2022/02/12 22:18:10;;;;;;;;;16.50;15.00;;;;;;;;2;261074232;261074232;-87
2022/02/12 22:27:10;;;;;;;;;29.00;17.00;;;;;;;;2;261076903;261076903;-87
2022/02/12 22:35:26;;;;;;;;;19.50;19.50;;;;;;;;2;261076405;261076405;-87
2022/02/12 22:44:26;;;;;;;;;19.50;17.50;;;;;;;;2;261078060;261078060;-87
2022/02/12 22:52:42;;;;;;;;;34.00;20.00;;;;;;;;2;261076093;261076093;-87
2022/02/12 23:01:42;;;;;;;;;15.00;15.00;;;;;;;;2;261076514;261076514;-87
2022/02/12 23:09:57;;;;;;;;;18.00;18.00;;;;;;;;2;261076203;261076203;-87
2022/02/12 23:19:00;;;;;;;;;34.50;27.00;;;;;;;;2;261075303;261075303;-87
2022/02/12 23:27:16;;;;;;;;;21.50;21.50;;;;;;;;2;261077675;261077675;-87
2022/02/12 23:36:16;;;;;;;;;28.00;20.00;;;;;;;;2;261076502;261076502;-87
2022/02/12 23:44:32;;;;;;;;;13.00;13.00;;;;;;;;2;261079899;261079899;-87
2022/02/12 23:53:33;;;;;;;;;11.50;11.50;;;;;;;;2;261076550;261076550;-87
